Time;durP1;ratioP1;P1;durP2;ratioP2;P2;SDS_P1;SDS_P2;PMS_P1;PMS_P2;Temp;Humidity;BMP_temperature;BMP_pressure;BME280_temperature;BME280_humidity;BME280_pressure;Samples;Min_cycle;Max_cycle;Signal;HPM_P1;HPM_P2
2021/05/25 00:01:32;;;;;;;2.72;0.60;;;18.20;65.60;;;;;;5071494;28;20028;-63
2021/05/25 00:03:57;;;;;;;3.67;0.90;;;18.20;65.60;;;;;;5069788;28;20038;-63
2021/05/25 00:06:23;;;;;;;3.35;1.00;;;18.20;65.60;;;;;;5070220;28;20027;-63
2021/05/25 00:08:48;;;;;;;2.90;0.90;;;18.20;65.60;;;;;;5071337;28;20032;-64
2021/05/25 00:11:15;;;;;;;3.55;0.90;;;18.10;65.60;;;;;;5070100;28;20028;-63
2021/05/25 00:13:41;;;;;;;1.13;0.60;;;18.20;65.70;;;;;;5071029;28;20052;-63
2021/05/25 00:16:06;;;;;;;3.88;0.90;;;18.10;65.60;;;;;;5071433;28;20044;-63
2021/05/25 00:18:32;;;;;;;1.88;0.70;;;18.10;65.70;;;;;;5070671;28;20103;-62
2021/05/25 00:20:58;;;;;;;5.07;1.00;;;18.10;65.60;;;;;;5069956;28;20039;-62
2021/05/25 00:23:23;;;;;;;2.85;1.10;;;18.10;65.70;;;;;;5071027;28;20152;-63
2021/05/25 00:25:49;;;;;;;1.70;0.90;;;18.10;65.70;;;;;;5071069;28;20062;-63
2021/05/25 00:28:16;;;;;;;2.08;0.70;;;18.10;65.80;;;;;;5071287;28;20054;-62
2021/05/25 00:30:41;;;;;;;3.17;0.70;;;18.00;65.60;;;;;;5070926;28;20069;-64
2021/05/25 00:33:07;;;;;;;1.52;0.70;;;18.00;65.60;;;;;;5071258;28;20025;-63
2021/05/25 00:35:38;;;;;;;3.25;0.80;;;18.10;65.70;;;;;;5069348;28;20028;-63
2021/05/25 00:38:04;;;;;;;1.13;0.60;;;18.00;65.70;;;;;;5069794;28;20039;-63
2021/05/25 00:40:29;;;;;;;4.43;0.80;;;18.00;65.70;;;;;;5071096;28;20033;-63
2021/05/25 00:42:55;;;;;;;2.53;0.60;;;18.00;65.70;;;;;;5058351;28;20376;-63
2021/05/25 00:45:20;;;;;;;1.92;0.77;;;18.00;65.70;;;;;;5049437;28;20032;-63
2021/05/25 00:47:46;;;;;;;2.88;0.65;;;18.00;65.80;;;;;;5054214;28;20025;-62
2021/05/25 00:50:16;;;;;;;2.45;0.70;;;18.00;65.70;;;;;;5066076;28;20021;-63
2021/05/25 00:52:43;;;;;;;3.47;1.00;;;18.00;65.80;;;;;;5074760;28;20029;-63
2021/05/25 00:55:18;;;;;;;2.38;0.85;;;18.00;65.70;;;;;;5073210;28;20044;-63
2021/05/25 00:57:45;;;;;;;1.42;0.80;;;18.00;65.70;;;;;;5074464;28;20024;-62
2021/05/25 01:00:12;;;;;;;2.53;0.70;;;18.00;65.70;;;;;;5074592;28;20036;-62
2021/05/25 01:02:39;;;;;;;0.82;0.60;;;18.00;65.80;;;;;;5074600;28;20028;-62
2021/05/25 01:05:05;;;;;;;1.80;0.60;;;18.00;65.70;;;;;;5072998;28;20442;-63
2021/05/25 01:07:31;;;;;;;2.70;1.00;;;17.90;65.70;;;;;;5073145;28;20410;-62
2021/05/25 01:09:59;;;;;;;1.92;0.90;;;18.00;65.80;;;;;;5074414;28;20489;-63
2021/05/25 01:12:28;;;;;;;1.90;0.70;;;17.90;65.70;;;;;;5072962;28;20033;-62
2021/05/25 01:14:57;;;;;;;1.60;0.75;;;17.90;65.70;;;;;;5074085;28;20032;-63
2021/05/25 01:17:23;;;;;;;3.35;0.80;;;17.90;66.10;;;;;;5074379;28;20393;-63
2021/05/25 01:19:48;;;;;;;1.95;0.90;;;17.90;65.80;;;;;;5073705;28;20024;-63
2021/05/25 01:22:14;;;;;;;2.45;0.98;;;17.90;65.80;;;;;;5074089;28;20099;-65
2021/05/25 01:24:40;;;;;;;1.98;0.70;;;17.90;65.80;;;;;;5073891;28;20039;-63
2021/05/25 01:27:07;;;;;;;3.13;0.77;;;17.90;65.80;;;;;;5074236;28;20021;-63
2021/05/25 01:29:36;;;;;;;2.50;0.65;;;17.90;65.80;;;;;;5073990;28;20035;-63
2021/05/25 01:32:02;;;;;;;1.88;0.70;;;17.80;65.80;;;;;;5072847;28;20047;-63
2021/05/25 01:34:28;;;;;;;3.53;0.90;;;17.80;65.90;;;;;;5072457;28;20553;-62
2021/05/25 01:36:54;;;;;;;2.53;0.70;;;17.80;65.80;;;;;;5072519;28;20120;-62
2021/05/25 01:39:19;;;;;;;1.40;0.50;;;17.80;65.80;;;;;;5073923;28;20025;-62
2021/05/25 01:41:45;;;;;;;2.90;0.70;;;17.80;65.80;;;;;;5069453;28;20021;-64
2021/05/25 01:44:10;;;;;;;1.98;0.70;;;17.80;65.90;;;;;;5053757;28;20524;-63
2021/05/25 01:46:42;;;;;;;1.40;0.50;;;17.80;65.90;;;;;;5053455;28;20037;-63
2021/05/25 01:49:08;;;;;;;;;;;17.80;65.90;;;;;;5056747;28;20057;-63
2021/05/25 01:51:33;;;;;;;3.42;0.70;;;17.80;66.00;;;;;;5073443;28;19909;-63
2021/05/25 01:53:59;;;;;;;2.03;0.70;;;17.80;65.90;;;;;;5073426;28;20036;-63
2021/05/25 01:56:24;;;;;;;2.05;0.80;;;17.80;66.10;;;;;;5072132;28;20099;-63
2021/05/25 01:58:50;;;;;;;3.25;0.80;;;17.70;66.10;;;;;;5073370;28;20036;-63
2021/05/25 02:01:16;;;;;;;1.08;0.52;;;17.70;65.90;;;;;;5073528;28;20535;-62
2021/05/25 02:03:42;;;;;;;2.42;0.80;;;17.70;66.00;;;;;;5073155;28;20024;-62
2021/05/25 02:06:09;;;;;;;1.13;0.65;;;17.70;66.00;;;;;;5073480;28;20032;-63
2021/05/25 02:08:36;;;;;;;2.40;0.70;;;17.70;66.10;;;;;;5071972;28;20505;-62
2021/05/25 02:11:03;;;;;;;3.10;0.70;;;17.70;66.00;;;;;;5071205;28;20028;-63
2021/05/25 02:13:32;;;;;;;1.83;0.90;;;17.70;66.00;;;;;;5072981;28;20078;-62
2021/05/25 02:16:00;;;;;;;2.67;0.80;;;17.70;66.20;;;;;;5071992;28;20050;-62
2021/05/25 02:18:31;;;;;;;2.92;0.70;;;17.70;66.30;;;;;;5061998;28;20115;-62
2021/05/25 02:20:59;;;;;;;1.37;0.57;;;17.70;66.30;;;;;;5082519;28;20024;-63
2021/05/25 02:23:26;;;;;;;2.13;0.70;;;17.60;66.30;;;;;;5087013;28;20032;-62
2021/05/25 02:25:52;;;;;;;5.20;0.90;;;17.60;66.30;;;;;;5091846;28;20030;-63
2021/05/25 02:28:18;;;;;;;2.25;0.60;;;17.60;66.30;;;;;;5093160;28;20099;-64
2021/05/25 02:30:44;;;;;;;2.03;0.90;;;17.60;66.20;;;;;;5092929;28;20563;-63
2021/05/25 02:33:12;;;;;;;2.33;0.77;;;17.60;66.40;;;;;;5093169;28;20028;-64
2021/05/25 02:35:40;;;;;;;2.97;0.70;;;17.60;66.40;;;;;;5092830;28;20025;-62
2021/05/25 02:38:07;;;;;;;2.20;0.52;;;17.60;66.40;;;;;;5093068;28;20094;-63
2021/05/25 02:40:34;;;;;;;1.40;0.77;;;17.60;66.50;;;;;;5091644;28;20028;-63
2021/05/25 02:43:00;;;;;;;1.42;0.60;;;17.60;66.50;;;;;;5066174;28;20025;-63
2021/05/25 02:45:26;;;;;;;1.98;0.68;;;17.60;66.50;;;;;;5052366;28;20055;-63
2021/05/25 02:47:52;;;;;;;1.33;0.60;;;17.60;66.50;;;;;;5051180;28;20021;-63
2021/05/25 02:50:19;;;;;;;2.10;0.63;;;17.50;66.40;;;;;;5063391;28;20086;-64
2021/05/25 02:52:47;;;;;;;1.95;0.88;;;17.50;66.50;;;;;;5072535;28;20036;-63
2021/05/25 02:55:16;;;;;;;2.05;0.70;;;17.60;66.50;;;;;;5070951;28;20394;-62
2021/05/25 02:57:41;;;;;;;1.85;0.80;;;17.50;66.50;;;;;;5070927;28;20025;-63
2021/05/25 03:00:14;;;;;;;1.30;0.55;;;17.50;66.50;;;;;;5072323;28;20394;-63
2021/05/25 03:02:40;;;;;;;1.67;0.80;;;17.50;66.60;;;;;;5071134;28;20025;-64
2021/05/25 03:05:07;;;;;;;2.35;0.70;;;17.50;66.50;;;;;;5070926;28;20481;-63
2021/05/25 03:07:33;;;;;;;2.08;0.60;;;17.50;66.70;;;;;;5072231;28;20032;-63
2021/05/25 03:09:59;;;;;;;2.78;0.80;;;17.50;66.70;;;;;;5071272;28;20029;-63
2021/05/25 03:12:24;;;;;;;1.23;0.55;;;17.50;66.70;;;;;;5071976;28;20028;-63
2021/05/25 03:14:50;;;;;;;1.85;0.50;;;17.50;66.60;;;;;;5071913;28;20020;-63
2021/05/25 03:17:15;;;;;;;2.50;0.65;;;17.50;66.60;;;;;;5070863;28;20499;-63
2021/05/25 03:19:41;;;;;;;1.63;0.70;;;17.50;66.60;;;;;;5071514;28;20043;-64
2021/05/25 03:22:07;;;;;;;1.98;0.65;;;17.50;66.70;;;;;;5071996;28;20028;-63
2021/05/25 03:24:33;;;;;;;1.20;0.60;;;17.40;66.70;;;;;;5071529;28;20029;-63
2021/05/25 03:26:59;;;;;;;0.38;0.38;;;17.40;66.70;;;;;;5072018;28;20028;-62
2021/05/25 03:29:24;;;;;;;1.52;0.50;;;17.40;66.70;;;;;;5071825;28;20033;-62
2021/05/25 03:31:50;;;;;;;3.17;0.75;;;17.40;66.60;;;;;;5071847;28;20482;-63
2021/05/25 03:34:15;;;;;;;0.88;0.55;;;17.40;66.70;;;;;;5071559;28;20024;-63
2021/05/25 03:36:41;;;;;;;1.85;0.60;;;17.40;66.70;;;;;;5070132;28;20025;-65
2021/05/25 03:39:07;;;;;;;1.92;0.70;;;17.40;66.70;;;;;;5070463;28;20040;-63
2021/05/25 03:41:32;;;;;;;0.70;0.50;;;17.40;66.70;;;;;;5070290;28;20489;-63
2021/05/25 03:44:00;;;;;;;1.25;0.60;;;17.40;66.60;;;;;;5051389;28;20025;-63
2021/05/25 03:46:26;;;;;;;1.02;0.60;;;17.40;66.70;;;;;;5051095;28;20025;-64
2021/05/25 03:48:51;;;;;;;1.83;0.60;;;17.40;66.60;;;;;;5051722;28;20074;-64
2021/05/25 03:51:17;;;;;;;1.45;0.60;;;17.40;66.70;;;;;;5070275;28;20020;-63
2021/05/25 03:53:42;;;;;;;0.73;0.50;;;17.40;66.70;;;;;;5071208;28;20024;-63
2021/05/25 03:58:53;;;;;;;1.08;0.57;;;17.40;66.70;;;;;;5071824;28;20107;-64
2021/05/25 04:01:26;;;;;;;4.32;0.70;;;17.40;66.60;;;;;;5071470;28;20505;-63
2021/05/25 04:03:56;;;;;;;0.77;0.60;;;17.40;66.80;;;;;;5071153;28;20506;-63
2021/05/25 04:06:23;;;;;;;0.82;0.47;;;17.30;66.80;;;;;;5071477;28;20100;-63
2021/05/25 04:08:49;;;;;;;1.73;0.70;;;17.40;66.80;;;;;;5071417;28;20036;-63
2021/05/25 04:11:16;;;;;;;3.35;0.70;;;17.30;66.80;;;;;;5071434;28;20021;-64
2021/05/25 04:13:43;;;;;;;0.98;0.50;;;17.30;66.90;;;;;;5071132;28;20024;-63
2021/05/25 04:16:11;;;;;;;1.75;0.60;;;17.30;66.70;;;;;;5071421;28;20017;-63
2021/05/25 04:18:37;;;;;;;2.17;0.65;;;17.30;66.80;;;;;;5069692;28;20025;-62
2021/05/25 04:21:03;;;;;;;0.85;0.60;;;17.30;66.80;;;;;;5080863;28;20036;-62
2021/05/25 04:23:28;;;;;;;1.00;0.47;;;17.30;66.80;;;;;;5077393;28;20029;-61
2021/05/25 04:25:54;;;;;;;2.92;0.70;;;17.30;66.80;;;;;;5074785;28;20032;-63
2021/05/25 04:28:19;;;;;;;3.63;0.70;;;17.30;66.70;;;;;;5072547;28;20040;-62
2021/05/25 04:30:45;;;;;;;2.28;0.60;;;17.30;66.60;;;;;;5078258;28;20027;-62
2021/05/25 04:33:11;;;;;;;3.10;0.60;;;17.30;66.70;;;;;;5078355;28;20051;-63
2021/05/25 04:35:36;;;;;;;4.57;0.80;;;17.30;66.70;;;;;;5068867;28;20045;-63
2021/05/25 04:38:03;;;;;;;4.30;0.90;;;17.30;66.90;;;;;;5073585;28;20402;-63
2021/05/25 04:40:30;;;;;;;3.88;1.00;;;17.30;66.70;;;;;;5072817;28;20500;-63
2021/05/25 04:42:56;;;;;;;2.40;0.90;;;17.30;66.00;;;;;;5073959;28;20490;-62
2021/05/25 04:45:23;;;;;;;4.70;0.90;;;17.30;65.30;;;;;;5073852;28;20025;-63
2021/05/25 04:47:48;;;;;;;4.15;1.00;;;17.30;64.50;;;;;;5072721;28;20024;-62
2021/05/25 04:50:15;;;;;;;3.38;0.88;;;17.30;63.70;;;;;;5072108;28;20032;-63
2021/05/25 04:52:41;;;;;;;2.20;0.98;;;17.20;63.40;;;;;;5074562;28;20017;-64
2021/05/25 04:55:10;;;;;;;3.05;1.00;;;17.30;63.30;;;;;;5072987;28;20108;-63
2021/05/25 04:57:36;;;;;;;7.70;1.13;;;17.30;62.90;;;;;;5074488;28;20082;-65
2021/05/25 05:00:04;;;;;;;2.65;1.08;;;17.30;62.50;;;;;;5073999;28;20028;-63
2021/05/25 05:02:29;;;;;;;4.07;1.30;;;17.30;62.30;;;;;;5071565;28;20106;-64
2021/05/25 05:04:55;;;;;;;2.00;0.90;;;17.30;62.60;;;;;;5072585;28;20021;-63
2021/05/25 05:07:20;;;;;;;5.20;1.02;;;17.30;61.90;;;;;;5072742;28;20501;-62
2021/05/25 05:09:46;;;;;;;5.78;1.13;;;17.30;62.00;;;;;;5072900;28;20532;-64
2021/05/25 05:12:12;;;;;;;5.07;0.90;;;17.30;62.10;;;;;;5073332;28;20021;-62
2021/05/25 05:14:37;;;;;;;4.50;1.00;;;17.40;62.30;;;;;;5074193;28;20440;-62
2021/05/25 05:17:03;;;;;;;2.80;0.80;;;17.40;62.40;;;;;;5072914;28;20025;-62
2021/05/25 05:19:28;;;;;;;5.93;1.20;;;17.40;62.60;;;;;;5063553;28;20367;-62
2021/05/25 05:21:54;;;;;;;6.82;0.90;;;17.40;63.20;;;;;;5069842;28;20024;-63
2021/05/25 05:24:20;;;;;;;9.65;1.35;;;17.40;64.30;;;;;;5072116;28;20019;-62
2021/05/25 05:26:45;;;;;;;9.93;1.13;;;17.40;64.90;;;;;;5073595;28;20104;-65
2021/05/25 05:29:11;;;;;;;7.20;1.05;;;17.40;65.10;;;;;;5074686;28;20033;-62
2021/05/25 05:31:37;;;;;;;6.50;0.98;;;17.50;65.20;;;;;;5072760;28;20020;-62
2021/05/25 05:34:03;;;;;;;6.30;1.00;;;17.50;65.50;;;;;;5072907;28;20028;-62
2021/05/25 05:36:28;;;;;;;5.65;1.05;;;17.50;65.20;;;;;;5069280;28;20021;-62
2021/05/25 05:38:54;;;;;;;6.88;1.10;;;17.50;64.60;;;;;;5066880;28;20386;-62
2021/05/25 05:41:19;;;;;;;2.97;0.98;;;17.50;65.40;;;;;;5071139;28;20489;-63
2021/05/25 05:43:45;;;;;;;6.10;0.90;;;17.50;65.40;;;;;;5073195;28;20644;-62
2021/05/25 05:46:12;;;;;;;8.13;1.13;;;17.60;64.90;;;;;;5072979;28;20035;-63
2021/05/25 05:48:38;;;;;;;9.02;1.10;;;17.60;65.10;;;;;;5073201;28;20158;-63
2021/05/25 05:51:04;;;;;;;13.57;1.20;;;17.70;65.20;;;;;;5071312;28;20115;-63
2021/05/25 05:53:29;;;;;;;7.38;1.10;;;17.70;65.00;;;;;;5071387;28;20021;-62
2021/05/25 05:55:55;;;;;;;4.50;1.15;;;17.70;65.00;;;;;;5073526;28;20028;-63
2021/05/25 05:58:20;;;;;;;6.82;1.00;;;17.60;65.00;;;;;;5072605;28;20036;-63
2021/05/25 06:00:46;;;;;;;4.70;0.90;;;17.60;65.20;;;;;;5073015;28;20028;-62
2021/05/25 06:03:12;;;;;;;6.40;1.20;;;17.60;64.90;;;;;;5073021;28;20486;-62
2021/05/25 06:05:38;;;;;;;2.63;0.70;;;17.50;65.10;;;;;;5072980;28;20027;-62
2021/05/25 06:08:06;;;;;;;4.57;1.00;;;17.60;65.30;;;;;;5072274;28;20029;-62
2021/05/25 06:10:35;;;;;;;4.80;1.00;;;17.60;65.30;;;;;;5071340;28;20059;-63
2021/05/25 06:13:00;;;;;;;4.97;0.90;;;17.60;65.20;;;;;;5070218;28;20155;-62
2021/05/25 06:15:26;;;;;;;7.05;1.10;;;17.60;65.40;;;;;;5071776;28;20135;-64
2021/05/25 06:17:52;;;;;;;3.55;1.02;;;17.60;65.30;;;;;;5070759;28;20442;-64
2021/05/25 06:20:18;;;;;;;5.80;0.90;;;17.50;65.20;;;;;;5061473;28;20118;-63
2021/05/25 06:22:44;;;;;;;5.75;1.35;;;17.50;65.20;;;;;;5071715;28;20024;-63
2021/05/25 06:25:11;;;;;;;3.75;1.00;;;17.60;65.00;;;;;;5071303;28;20058;-64
2021/05/25 06:27:37;;;;;;;3.28;0.93;;;17.60;64.90;;;;;;5070525;28;20025;-63
2021/05/25 06:30:05;;;;;;;3.65;0.80;;;17.60;64.60;;;;;;5069370;28;20052;-64
2021/05/25 06:32:30;;;;;;;4.57;0.90;;;17.60;64.50;;;;;;5091954;22;20097;-69
2021/05/25 06:34:56;;;;;;;2.50;0.90;;;17.60;64.70;;;;;;5070805;28;20024;-65
2021/05/25 06:37:21;;;;;;;3.47;0.93;;;17.60;63.50;;;;;;5069337;28;20025;-67
2021/05/25 06:39:47;;;;;;;3.38;0.70;;;17.60;63.60;;;;;;5038291;28;20013;-69
2021/05/25 06:42:12;;;;;;;3.78;1.00;;;17.60;64.20;;;;;;5052639;28;20074;-70
2021/05/25 06:44:38;;;;;;;6.72;1.10;;;17.60;64.30;;;;;;5071812;28;20013;-68
2021/05/25 06:47:04;;;;;;;4.88;1.13;;;17.60;63.90;;;;;;5054156;28;20073;-67
2021/05/25 06:49:29;;;;;;;4.25;1.13;;;17.70;63.90;;;;;;5072076;28;20032;-68
2021/05/25 06:51:55;;;;;;;2.58;1.00;;;17.70;63.90;;;;;;5053672;28;20031;-70
2021/05/25 06:54:21;;;;;;;3.47;0.90;;;17.70;64.10;;;;;;5035789;28;20021;-67
2021/05/25 06:56:47;;;;;;;4.43;0.80;;;17.70;63.60;;;;;;5071247;28;20014;-68
2021/05/25 06:59:12;;;;;;;3.55;0.88;;;17.90;63.40;;;;;;5070939;28;20034;-68
2021/05/25 07:01:38;;;;;;;2.60;0.82;;;17.90;62.40;;;;;;5052782;28;20111;-68
2021/05/25 07:04:04;;;;;;;6.00;1.10;;;17.90;62.90;;;;;;5071418;28;20489;-69
2021/05/25 07:06:29;;;;;;;4.13;0.80;;;17.90;63.00;;;;;;5053040;28;20029;-67
2021/05/25 07:08:55;;;;;;;3.20;0.80;;;17.80;62.70;;;;;;5053713;28;20024;-68
2021/05/25 07:11:23;;;;;;;1.75;0.85;;;17.80;63.60;;;;;;5070169;28;20039;-68
2021/05/25 07:13:49;;;;;;;4.55;0.80;;;17.80;63.50;;;;;;5069704;28;20017;-67
2021/05/25 07:16:15;;;;;;;3.40;0.70;;;17.80;63.30;;;;;;5071565;28;20016;-68
2021/05/25 07:18:41;;;;;;;2.65;1.00;;;17.80;63.50;;;;;;5071420;28;20032;-69
2021/05/25 07:21:07;;;;;;;1.95;0.80;;;17.80;63.70;;;;;;5071531;28;20032;-68
2021/05/25 07:23:33;;;;;;;4.20;1.05;;;17.80;62.90;;;;;;5065499;28;20031;-67
2021/05/25 07:25:59;;;;;;;4.38;0.90;;;17.90;63.30;;;;;;5071363;28;20482;-69
2021/05/25 07:28:25;;;;;;;1.50;0.70;;;17.90;63.60;;;;;;5071250;28;20078;-68
2021/05/25 07:30:51;;;;;;;3.95;0.82;;;17.90;63.00;;;;;;5069530;28;20024;-69
2021/05/25 07:33:17;;;;;;;1.98;0.70;;;17.90;63.70;;;;;;5070900;28;20044;-68
2021/05/25 07:35:42;;;;;;;3.88;0.77;;;18.00;63.20;;;;;;5053050;28;20020;-69
2021/05/25 07:38:08;;;;;;;2.20;0.82;;;18.10;63.10;;;;;;5053350;28;20023;-69
2021/05/25 07:40:35;;;;;;;2.15;0.80;;;18.10;62.80;;;;;;5053289;28;20033;-68
2021/05/25 07:43:01;;;;;;;2.53;0.60;;;18.30;62.90;;;;;;5053143;28;20073;-68
2021/05/25 07:45:26;;;;;;;1.77;0.65;;;18.40;62.30;;;;;;5052859;28;20099;-69
2021/05/25 07:47:52;;;;;;;6.18;1.00;;;18.40;62.10;;;;;;5068482;28;20029;-71
2021/05/25 07:50:18;;;;;;;4.88;1.33;;;18.30;62.00;;;;;;5048283;28;20021;-68
2021/05/25 07:52:47;;;;;;;2.38;0.80;;;18.30;62.00;;;;;;5064789;28;20031;-69
2021/05/25 07:55:15;;;;;;;2.88;0.80;;;18.30;62.30;;;;;;5060803;28;20055;-68
2021/05/25 07:57:41;;;;;;;3.83;0.88;;;18.30;62.40;;;;;;5042832;28;20024;-69
2021/05/25 08:00:11;;;;;;;2.42;0.80;;;18.30;62.60;;;;;;5045154;28;20116;-70
2021/05/25 08:02:37;;;;;;;3.13;0.80;;;18.40;62.50;;;;;;5048764;28;20626;-68
2021/05/25 08:05:04;;;;;;;3.40;0.85;;;18.40;62.20;;;;;;5063289;28;20024;-67
2021/05/25 08:07:29;;;;;;;4.00;0.77;;;18.40;62.40;;;;;;5069086;28;20027;-68
2021/05/25 08:09:55;;;;;;;3.10;0.82;;;18.50;62.00;;;;;;5071300;28;20096;-69
2021/05/25 08:12:21;;;;;;;3.35;0.70;;;18.40;62.20;;;;;;5071507;28;20402;-67
2021/05/25 08:14:46;;;;;;;1.75;0.70;;;18.30;62.40;;;;;;5071129;28;20052;-67
2021/05/25 08:17:21;;;;;;;2.90;0.63;;;18.30;62.40;;;;;;5053112;28;20021;-69
2021/05/25 08:19:48;;;;;;;2.40;0.80;;;18.30;62.60;;;;;;5053460;28;20029;-67
2021/05/25 08:22:14;;;;;;;3.05;0.80;;;18.30;62.50;;;;;;5071451;28;20029;-68
2021/05/25 08:24:40;;;;;;;3.53;0.70;;;18.30;62.40;;;;;;5071123;28;20031;-67
2021/05/25 08:27:05;;;;;;;2.97;0.75;;;18.30;62.50;;;;;;5071448;28;20028;-67
2021/05/25 08:29:31;;;;;;;2.08;0.80;;;18.20;62.50;;;;;;5071200;28;20029;-68
2021/05/25 08:31:56;;;;;;;3.47;0.80;;;18.30;62.80;;;;;;5070858;28;20547;-68
2021/05/25 08:34:24;;;;;;;6.50;1.00;;;18.30;62.70;;;;;;5051801;28;20025;-68
2021/05/25 08:36:51;;;;;;;3.22;0.80;;;18.30;62.50;;;;;;5070715;28;20028;-67
2021/05/25 08:39:16;;;;;;;4.45;1.30;;;18.20;62.70;;;;;;5070649;28;20020;-68
2021/05/25 08:41:42;;;;;;;3.15;1.00;;;18.20;62.90;;;;;;5070593;28;20017;-68
2021/05/25 08:44:08;;;;;;;3.50;0.80;;;18.20;62.80;;;;;;5035733;28;20032;-68
2021/05/25 08:46:33;;;;;;;5.13;0.95;;;18.30;62.70;;;;;;5052613;28;20032;-68
2021/05/25 08:48:59;;;;;;;2.47;0.80;;;18.30;62.70;;;;;;5070521;28;20450;-68
2021/05/25 08:51:25;;;;;;;2.72;0.90;;;18.30;62.50;;;;;;5039560;28;20013;-68
2021/05/25 08:53:51;;;;;;;2.70;0.93;;;18.40;62.40;;;;;;5070228;28;20031;-68
2021/05/25 08:56:17;;;;;;;2.65;0.90;;;18.50;62.00;;;;;;5065304;28;20020;-68
2021/05/25 08:58:42;;;;;;;1.77;0.65;;;18.90;61.50;;;;;;5052402;28;20070;-68
2021/05/25 09:01:08;;;;;;;2.42;0.75;;;19.20;60.60;;;;;;5070465;28;20067;-69
2021/05/25 09:03:34;;;;;;;1.77;0.75;;;19.20;60.10;;;;;;5036321;28;20394;-68
2021/05/25 09:06:09;;;;;;;3.45;0.88;;;19.20;59.60;;;;;;5051912;28;20035;-67
2021/05/25 09:08:35;;;;;;;2.10;0.80;;;19.00;59.70;;;;;;5073217;28;20082;-67
2021/05/25 09:11:09;;;;;;;1.83;0.75;;;19.10;59.90;;;;;;5056023;28;20074;-67
2021/05/25 09:13:35;;;;;;;2.83;0.93;;;19.20;60.00;;;;;;5073592;28;20104;-68
2021/05/25 09:16:02;;;;;;;3.22;1.08;;;19.40;59.40;;;;;;5073447;28;20091;-68
2021/05/25 09:18:30;;;;;;;1.75;0.80;;;19.40;59.00;;;;;;5073849;28;20035;-69
2021/05/25 09:21:02;;;;;;;2.03;0.90;;;19.50;58.80;;;;;;5056195;28;20436;-66
2021/05/25 09:23:34;;;;;;;2.33;0.80;;;19.50;58.70;;;;;;5073804;28;20112;-69
2021/05/25 09:26:08;;;;;;;;;;;19.50;58.70;;;;;;5052218;28;20037;-70
2021/05/25 09:28:35;;;;;;;2.85;1.02;;;19.30;58.70;;;;;;5055622;28;20381;-67
2021/05/25 09:31:03;;;;;;;1.83;0.88;;;19.20;59.10;;;;;;5073716;28;20115;-67
2021/05/25 09:33:29;;;;;;;3.40;0.93;;;19.10;59.40;;;;;;5055288;28;20028;-67
2021/05/25 09:35:56;;;;;;;1.17;0.88;;;19.00;59.50;;;;;;5073523;28;20031;-68
2021/05/25 09:38:27;;;;;;;2.75;0.90;;;18.90;59.80;;;;;;5073141;28;20052;-70
2021/05/25 09:40:53;;;;;;;1.67;0.80;;;18.90;59.90;;;;;;5073554;28;20021;-68
2021/05/25 09:43:24;;;;;;;1.70;1.00;;;18.80;60.10;;;;;;5073208;28;20040;-69
2021/05/25 09:45:54;;;;;;;1.73;1.00;;;18.80;60.20;;;;;;5055221;28;20077;-68
2021/05/25 09:48:19;;;;;;;2.92;1.00;;;18.80;60.40;;;;;;5073253;28;20043;-68
2021/05/25 09:50:45;;;;;;;5.30;1.40;;;18.70;60.50;;;;;;5077120;28;20494;-68
2021/05/25 09:53:12;;;;;;;4.45;1.30;;;18.70;60.70;;;;;;5055318;28;20158;-69
2021/05/25 09:55:58;;;;;;;9.18;1.98;;;18.70;60.90;;;;;;5072938;28;20016;-68
2021/05/25 09:58:36;;;;;;;8.50;2.15;;;18.60;60.90;;;;;;5073169;28;20401;-68
2021/05/25 10:01:04;;;;;;;8.40;2.33;;;18.60;61.10;;;;;;5054529;28;20025;-66
2021/05/25 10:03:33;;;;;;;8.80;1.75;;;18.60;61.50;;;;;;5064462;28;20060;-67
2021/05/25 10:06:00;;;;;;;11.15;2.45;;;18.70;61.40;;;;;;5072947;28;20084;-68
2021/05/25 10:08:26;;;;;;;7.55;2.10;;;18.70;61.50;;;;;;5072754;28;20021;-68
2021/05/25 10:10:54;;;;;;;6.93;1.90;;;18.70;61.70;;;;;;5055069;28;20412;-68
2021/05/25 10:13:21;;;;;;;8.02;1.90;;;18.80;61.60;;;;;;5042469;28;20053;-68
2021/05/25 10:15:48;;;;;;;7.65;1.90;;;19.10;61.50;;;;;;5054270;28;20490;-68
2021/05/25 10:20:45;;;;;;;7.07;1.70;;;19.80;59.20;;;;;;5072662;28;20019;-68
2021/05/25 10:23:10;;;;;;;6.68;1.60;;;20.00;58.30;;;;;;5068638;28;20386;-67
2021/05/25 10:25:40;;;;;;;7.10;1.77;;;20.20;58.10;;;;;;5072133;28;20024;-69
2021/05/25 10:28:10;;;;;;;8.40;1.80;;;20.20;57.30;;;;;;5072459;28;20486;-66
2021/05/25 10:30:45;;;;;;;5.45;1.85;;;20.10;57.30;;;;;;5072421;28;20211;-67
2021/05/25 10:33:11;;;;;;;5.57;1.83;;;20.00;57.60;;;;;;5054405;28;20028;-68
2021/05/25 10:35:49;;;;;;;5.45;1.65;;;19.80;57.80;;;;;;5072208;28;20549;-67
2021/05/25 10:38:16;;;;;;;5.35;1.60;;;19.70;58.10;;;;;;5072463;28;20020;-68
2021/05/25 10:40:47;;;;;;;4.55;1.50;;;19.60;58.50;;;;;;5072535;28;20025;-68
2021/05/25 10:43:32;;;;;;;7.68;1.73;;;19.50;58.80;;;;;;5072844;28;20070;-69
2021/05/25 10:46:09;;;;;;;5.18;1.40;;;19.40;59.00;;;;;;5042260;28;20502;-68
2021/05/25 10:51:51;;;;;;;5.75;1.65;;;19.30;59.50;;;;;;5072275;28;20042;-68
2021/05/25 10:54:26;;;;;;;7.82;1.80;;;19.60;60.00;;;;;;5072203;28;20025;-67
2021/05/25 10:56:53;;;;;;;6.68;1.30;;;19.90;59.20;;;;;;5044626;28;20390;-68
2021/05/25 10:59:19;;;;;;;6.13;1.67;;;20.20;58.00;;;;;;5054036;28;20044;-68
2021/05/25 11:02:01;;;;;;;3.30;1.40;;;20.40;57.40;;;;;;5070127;28;20382;-68
2021/05/25 11:04:37;;;;;;;5.75;1.38;;;20.50;56.90;;;;;;5053547;28;20017;-68
2021/05/25 11:07:43;;;;;;;4.50;1.40;;;20.30;56.60;;;;;;5071174;28;20073;-68
2021/05/25 11:10:32;;;;;;;4.07;1.33;;;20.10;57.00;;;;;;5047838;28;20124;-69
2021/05/25 11:16:15;;;;;;;3.47;1.30;;;19.70;58.00;;;;;;5071435;28;20578;-68
2021/05/25 11:21:38;;;;;;;6.95;1.50;;;19.60;58.50;;;;;;5072376;28;20027;-69
2021/05/25 11:24:26;;;;;;;6.47;1.60;;;19.50;58.70;;;;;;5071824;28;20036;-68
2021/05/25 11:26:55;;;;;;;5.13;1.50;;;19.50;58.80;;;;;;5071927;28;20079;-68
2021/05/25 11:29:22;;;;;;;3.22;1.20;;;19.50;58.90;;;;;;5071578;28;20027;-68
2021/05/25 11:31:48;;;;;;;3.85;1.23;;;19.60;58.90;;;;;;5053523;28;20029;-68
2021/05/25 11:34:14;;;;;;;2.63;1.05;;;19.60;59.00;;;;;;5053830;28;20152;-68
2021/05/25 11:36:40;;;;;;;4.03;1.50;;;19.80;58.70;;;;;;5071876;28;20035;-69
2021/05/25 11:39:09;;;;;;;3.47;1.40;;;19.80;58.30;;;;;;5071780;28;20020;-68
2021/05/25 11:41:36;;;;;;;3.88;1.40;;;19.70;58.30;;;;;;5071771;28;20493;-67
2021/05/25 11:44:11;;;;;;;4.03;1.20;;;19.60;58.50;;;;;;5071533;28;20032;-68
2021/05/25 11:46:42;;;;;;;4.53;1.23;;;19.60;58.70;;;;;;5053794;28;20055;-68
2021/05/25 11:49:09;;;;;;;2.72;1.20;;;19.60;58.50;;;;;;5053728;28;20020;-68
2021/05/25 11:51:38;;;;;;;2.63;1.23;;;19.60;58.50;;;;;;5071638;28;20051;-67
2021/05/25 11:54:12;;;;;;;3.50;1.23;;;19.60;58.60;;;;;;5071397;28;20093;-68
2021/05/25 11:56:39;;;;;;;2.33;0.90;;;19.60;58.80;;;;;;5071592;28;20017;-68
2021/05/25 11:59:11;;;;;;;3.53;1.15;;;19.70;58.60;;;;;;5071675;28;20517;-67
2021/05/25 12:01:47;;;;;;;2.17;1.05;;;19.70;58.50;;;;;;5053530;28;20032;-67
2021/05/25 12:04:14;;;;;;;3.47;1.10;;;19.70;58.40;;;;;;5071352;28;20027;-68
2021/05/25 12:06:49;;;;;;;4.10;1.10;;;19.70;58.40;;;;;;5071059;28;20028;-68
2021/05/25 12:09:16;;;;;;;3.58;1.20;;;19.60;58.60;;;;;;5053475;28;20020;-67
2021/05/25 12:11:43;;;;;;;2.92;1.17;;;19.60;58.70;;;;;;5071384;28;20623;-67
2021/05/25 12:14:10;;;;;;;3.08;1.10;;;19.50;58.70;;;;;;5071253;28;20496;-67
2021/05/25 12:16:36;;;;;;;3.38;1.20;;;19.50;58.90;;;;;;5053441;28;20027;-67
2021/05/25 12:19:07;;;;;;;2.67;1.20;;;19.50;58.90;;;;;;5071529;28;20108;-66
2021/05/25 12:21:34;;;;;;;2.97;1.20;;;19.50;58.90;;;;;;5053423;28;20444;-67
2021/05/25 12:24:00;;;;;;;2.58;1.00;;;19.50;58.80;;;;;;5071231;28;20024;-67
2021/05/25 12:26:26;;;;;;;2.40;1.05;;;19.40;58.70;;;;;;5053421;28;20028;-67
2021/05/25 12:28:56;;;;;;;2.28;1.17;;;19.40;58.70;;;;;;5071131;28;20161;-68
2021/05/25 12:31:27;;;;;;;3.15;1.33;;;19.40;59.00;;;;;;5071397;28;20017;-68
2021/05/25 12:33:53;;;;;;;2.70;1.10;;;19.30;59.20;;;;;;5086175;22;20040;-65
2021/05/25 12:36:24;;;;;;;2.17;1.10;;;19.30;59.10;;;;;;5054905;28;20028;-67
2021/05/25 12:38:56;;;;;;;2.08;1.13;;;19.20;59.20;;;;;;5070831;28;20099;-64
2021/05/25 12:41:22;;;;;;;2.63;1.30;;;19.20;59.40;;;;;;5086798;28;20039;-66
2021/05/25 12:43:47;;;;;;;2.60;1.10;;;19.10;59.50;;;;;;5094142;28;20039;-65
2021/05/25 12:46:13;;;;;;;3.60;1.10;;;19.10;59.70;;;;;;5094507;28;20055;-64
2021/05/25 12:48:41;;;;;;;3.78;1.33;;;19.10;59.70;;;;;;5094926;28;20032;-63
2021/05/25 12:51:08;;;;;;;3.63;1.20;;;19.10;59.70;;;;;;5090498;28;20028;-64
2021/05/25 12:54:03;;;;;;;3.42;0.93;;;19.20;59.70;;;;;;5082318;28;20032;-67
2021/05/25 12:56:28;;;;;;;3.13;1.10;;;19.10;59.60;;;;;;5077460;28;20115;-64
2021/05/25 12:58:55;;;;;;;2.90;1.15;;;19.20;59.50;;;;;;5095138;28;20452;-61
2021/05/25 13:01:25;;;;;;;2.97;1.13;;;19.10;59.50;;;;;;5095083;28;20028;-64
2021/05/25 13:03:51;;;;;;;2.03;0.95;;;19.10;59.50;;;;;;5094645;28;20047;-64